Terminal Aerodrome Forecast
Issued by NWS Shreveport, LA

Home | Current Version | Previous Version | Text Only | Print | Product List | Glossary On
Versions: 1 2 3 4 5 6 7 8 9 10 11 12 13 14 15
117
FTUS44 KSHV 271126
TAFMLU
TAF
KMLU 271126Z 2712/2812 VRB03KT P6SM SCT100 SCT250
     FM271500 09005KT P6SM SCT100 SCT250
     FM280000 00000KT P6SM SCT250=

USA.gov is the U.S. government's official web portal to all federal, state and local government web resources and services.